createdAt,value
2023-04-29T00:00:28.218Z,15.75
2023-04-29T00:03:17.988Z,16.27
2023-04-29T00:06:08.353Z,15.82
2023-04-29T00:08:57.161Z,16.70
2023-04-29T00:11:47.307Z,15.35
2023-04-29T00:14:37.067Z,15.23
2023-04-29T00:17:25.980Z,16.13
2023-04-29T00:20:15.215Z,15.95
2023-04-29T00:23:06.184Z,15.50
2023-04-29T00:25:55.181Z,15.80
2023-04-29T00:28:43.976Z,15.05
2023-04-29T00:31:33.778Z,15.38
2023-04-29T00:34:22.649Z,15.77
2023-04-29T00:37:11.389Z,16.63
2023-04-29T00:40:02.235Z,16.08
2023-04-29T00:42:50.925Z,15.45
2023-04-29T00:45:40.663Z,15.90
2023-04-29T00:48:30.614Z,14.52
2023-04-29T00:51:20.082Z,14.85
2023-04-29T00:54:10.121Z,15.80
2023-04-29T00:57:01.933Z,14.65
2023-04-29T00:59:51.436Z,15.45
2023-04-29T01:02:40.862Z,15.43
2023-04-29T01:05:30.428Z,15.07
2023-04-29T01:08:39.346Z,15.27
2023-04-29T01:11:43.107Z,14.93
2023-04-29T01:14:38.292Z,14.68
2023-04-29T01:17:32.798Z,14.43
2023-04-29T01:20:23.700Z,15.45
2023-04-29T01:23:12.473Z,13.95
2023-04-29T01:26:05.679Z,15.00
2023-04-29T01:29:26.747Z,15.18
2023-04-29T01:32:25.131Z,13.85
2023-04-29T01:35:27.477Z,15.32
2023-04-29T01:38:24.934Z,14.35
2023-04-29T01:41:19.233Z,14.48
2023-04-29T01:44:17.863Z,14.07
2023-04-29T01:47:07.558Z,14.00
2023-04-29T01:50:02.797Z,14.35
2023-04-29T01:52:52.301Z,14.02
2023-04-29T01:55:41.978Z,13.63
2023-04-29T01:58:41.994Z,13.57
2023-04-29T02:01:56.808Z,13.52
2023-04-29T02:04:46.355Z,13.90
2023-04-29T02:07:35.462Z,14.30
2023-04-29T02:10:24.692Z,13.20
2023-04-29T02:13:22.851Z,13.00
2023-04-29T02:16:14.092Z,13.32
2023-04-29T02:19:07.290Z,13.38
2023-04-29T02:21:56.605Z,13.38
2023-04-29T02:24:47.484Z,13.10
2023-04-29T02:27:36.276Z,12.50
2023-04-29T02:30:25.588Z,12.73
2023-04-29T02:33:16.760Z,12.55
2023-04-29T02:36:06.011Z,13.30
2023-04-29T02:38:56.571Z,12.35
2023-04-29T02:41:45.430Z,12.32
2023-04-29T02:44:34.958Z,12.55
2023-04-29T02:47:23.876Z,13.02
2023-04-29T02:50:17.864Z,12.40
2023-04-29T02:53:07.034Z,12.75
2023-04-29T02:55:57.342Z,12.32
2023-04-29T02:58:46.523Z,11.77
2023-04-29T03:01:35.313Z,12.00
2023-04-29T03:04:24.914Z,12.05
2023-04-29T03:07:17.544Z,12.35
2023-04-29T03:10:07.849Z,11.77
2023-04-29T03:12:59.123Z,11.60
2023-04-29T03:15:48.258Z,11.50
2023-04-29T03:18:37.722Z,12.55
2023-04-29T03:21:27.836Z,11.27
2023-04-29T03:24:18.296Z,11.93
2023-04-29T03:27:07.223Z,12.10
2023-04-29T03:29:56.055Z,11.77
2023-04-29T03:32:45.449Z,10.38
2023-04-29T03:35:34.274Z,11.20
2023-04-29T03:38:41.935Z,11.35
2023-04-29T03:41:32.703Z,11.00
2023-04-29T03:44:21.421Z,11.43
2023-04-29T03:47:10.218Z,10.23
2023-04-29T03:49:58.906Z,11.15
2023-04-29T03:52:48.326Z,11.60
2023-04-29T03:55:38.938Z,10.88
2023-04-29T03:58:29.758Z,10.60
2023-04-29T04:01:19.539Z,10.57
2023-04-29T04:04:09.126Z,11.00
2023-04-29T04:07:01.404Z,10.55
2023-04-29T04:09:59.548Z,10.70
2023-04-29T04:12:48.832Z,10.60
2023-04-29T04:15:39.027Z,10.30
2023-04-29T04:18:29.078Z,9.73
2023-04-29T04:21:18.885Z,9.43
2023-04-29T04:24:15.229Z,10.05
2023-04-29T04:27:04.362Z,9.30
2023-04-29T04:29:59.868Z,9.50
2023-04-29T04:32:55.425Z,8.90
2023-04-29T04:35:44.945Z,9.15
2023-04-29T04:38:34.336Z,9.60
2023-04-29T04:41:31.618Z,9.20
2023-04-29T04:44:21.023Z,9.32
2023-04-29T04:47:20.076Z,9.40
2023-04-29T04:50:20.406Z,9.05
2023-04-29T04:53:10.981Z,8.27
2023-04-29T04:56:10.064Z,8.13
2023-04-29T04:58:59.776Z,8.40
2023-04-29T05:01:48.666Z,8.82
2023-04-29T05:04:37.971Z,7.80
2023-04-29T05:07:29.219Z,8.48
2023-04-29T05:10:26.548Z,7.78
2023-04-29T05:13:18.221Z,8.13
2023-04-29T05:16:07.724Z,7.63
2023-04-29T05:19:00.655Z,7.55
2023-04-29T05:21:54.810Z,8.27
2023-04-29T05:24:48.346Z,7.75
2023-04-29T05:27:39.324Z,7.85
2023-04-29T05:30:32.711Z,7.57
2023-04-29T05:33:22.425Z,7.38
2023-04-29T05:36:11.355Z,8.45
2023-04-29T05:39:00.401Z,7.68
2023-04-29T05:41:51.038Z,7.25
2023-04-29T05:44:44.399Z,7.25
2023-04-29T05:47:33.508Z,7.15
2023-04-29T05:50:23.434Z,6.90
2023-04-29T05:53:12.757Z,6.53
2023-04-29T05:56:08.379Z,7.38
2023-04-29T05:58:59.812Z,7.20
2023-04-29T06:01:48.722Z,6.82
2023-04-29T06:04:37.925Z,6.53
2023-04-29T06:07:49.961Z,7.32
2023-04-29T06:11:06.183Z,6.47
2023-04-29T06:13:55.348Z,6.65
2023-04-29T06:16:46.485Z,6.50
2023-04-29T06:19:35.297Z,6.32
2023-04-29T06:22:24.524Z,5.95
2023-04-29T06:25:16.377Z,6.78
2023-04-29T06:28:09.809Z,6.05
2023-04-29T06:30:59.309Z,5.72
2023-04-29T06:33:50.152Z,5.80
2023-04-29T06:36:38.958Z,5.97
2023-04-29T06:39:40.089Z,6.22
2023-04-29T06:42:49.427Z,5.75
2023-04-29T06:45:57.632Z,5.57
2023-04-29T06:48:57.426Z,5.55
2023-04-29T06:51:46.406Z,6.15
2023-04-29T06:54:35.633Z,5.38
2023-04-29T06:57:24.896Z,5.85
2023-04-29T07:00:16.040Z,5.45
2023-04-29T07:03:05.488Z,5.78
2023-04-29T07:05:56.399Z,5.40
2023-04-29T07:08:45.798Z,5.32
2023-04-29T07:11:38.746Z,6.55
2023-04-29T07:14:29.858Z,4.75
2023-04-29T07:17:20.891Z,4.32
2023-04-29T07:20:10.915Z,4.88
2023-04-29T07:23:01.737Z,4.72
2023-04-29T07:25:50.375Z,4.93
2023-04-29T07:28:39.461Z,4.25
2023-04-29T07:31:38.483Z,4.40
2023-04-29T07:34:29.596Z,3.90
2023-04-29T07:37:18.408Z,4.47
2023-04-29T07:40:09.951Z,3.58
2023-04-29T07:43:04.720Z,4.10
2023-04-29T07:45:54.423Z,3.65
2023-04-29T07:48:44.001Z,4.28
2023-04-29T07:51:33.331Z,4.38
2023-04-29T07:54:22.457Z,3.72
2023-04-29T07:57:12.722Z,3.80
2023-04-29T08:00:01.510Z,3.92
2023-04-29T08:02:52.849Z,3.88
2023-04-29T08:05:43.819Z,3.70
2023-04-29T08:08:36.572Z,3.83
2023-04-29T08:11:29.253Z,3.60
2023-04-29T08:14:19.334Z,4.10
2023-04-29T08:17:08.544Z,3.92
2023-04-29T08:19:57.633Z,3.83
2023-04-29T08:22:49.422Z,4.10
2023-04-29T08:25:42.400Z,4.13
2023-04-29T08:28:31.354Z,3.70
2023-04-29T08:31:22.811Z,4.00
2023-04-29T08:34:11.516Z,4.10
2023-04-29T08:37:00.705Z,3.67
2023-04-29T08:39:49.743Z,4.18
2023-04-29T08:42:39.539Z,4.10
2023-04-29T08:45:29.981Z,3.72
2023-04-29T08:48:21.286Z,3.95
2023-04-29T08:51:13.606Z,4.40
2023-04-29T08:54:02.421Z,4.00
2023-04-29T08:56:53.368Z,3.75
2023-04-29T08:59:44.237Z,4.00
2023-04-29T09:02:34.728Z,4.05
2023-04-29T09:05:27.273Z,3.70
2023-04-29T09:08:17.122Z,3.72
2023-04-29T09:11:09.953Z,3.70
2023-04-29T09:14:01.891Z,3.80
2023-04-29T09:16:51.751Z,4.20
2023-04-29T09:19:40.777Z,4.20
2023-04-29T09:22:50.498Z,3.92
2023-04-29T09:25:39.268Z,4.10
2023-04-29T09:28:27.978Z,3.90
2023-04-29T09:31:17.142Z,4.28
2023-04-29T09:34:05.862Z,4.13
2023-04-29T09:36:59.083Z,4.45
2023-04-29T09:39:50.141Z,4.40
2023-04-29T09:42:45.022Z,4.38
2023-04-29T09:45:35.725Z,4.32
2023-04-29T09:48:32.237Z,4.00
2023-04-29T09:51:20.992Z,3.80
2023-04-29T09:54:22.858Z,3.97
2023-04-29T09:57:15.185Z,3.95
2023-04-29T10:00:03.926Z,4.60
2023-04-29T10:03:02.766Z,4.20
2023-04-29T10:05:51.587Z,3.63
2023-04-29T10:08:41.513Z,4.10
2023-04-29T10:11:31.665Z,3.78
2023-04-29T10:14:23.937Z,4.53
2023-04-29T10:17:17.529Z,5.10
2023-04-29T10:20:08.440Z,4.47
2023-04-29T10:23:00.014Z,4.10
2023-04-29T10:25:52.097Z,4.10
2023-04-29T10:28:43.176Z,3.67
2023-04-29T10:31:34.181Z,4.35
2023-04-29T10:34:24.486Z,4.65
2023-04-29T10:37:14.044Z,3.95
2023-04-29T10:40:12.073Z,4.25
2023-04-29T10:43:01.596Z,4.50
2023-04-29T10:45:51.043Z,4.05
2023-04-29T10:48:41.602Z,4.10
2023-04-29T10:51:32.989Z,4.32
2023-04-29T10:54:26.039Z,4.07
2023-04-29T10:57:22.233Z,4.25
2023-04-29T11:00:23.515Z,4.10
2023-04-29T11:04:02.475Z,4.25
2023-04-29T11:06:56.160Z,3.90
2023-04-29T11:09:46.066Z,4.03
2023-04-29T11:12:34.825Z,4.10
2023-04-29T11:15:23.580Z,4.22
2023-04-29T11:18:13.184Z,3.97
2023-04-29T11:21:15.126Z,4.13
2023-04-29T11:24:06.992Z,4.45
2023-04-29T11:26:56.122Z,4.38
2023-04-29T11:29:46.685Z,4.00
2023-04-29T11:32:37.362Z,4.20
2023-04-29T11:35:26.107Z,4.10
2023-04-29T11:38:15.001Z,4.00
2023-04-29T11:41:06.867Z,4.40
2023-04-29T11:43:59.968Z,4.47
2023-04-29T11:46:50.238Z,3.90
2023-04-29T11:49:39.714Z,4.15
2023-04-29T11:52:29.909Z,4.70
2023-04-29T11:55:19.611Z,3.80
2023-04-29T11:58:09.666Z,4.72
2023-04-29T12:00:59.993Z,4.68
2023-04-29T12:03:50.926Z,4.32
2023-04-29T12:06:39.726Z,4.45
2023-04-29T12:09:28.497Z,4.63
2023-04-29T12:12:17.612Z,4.63
2023-04-29T12:15:10.282Z,4.47
2023-04-29T12:17:59.478Z,4.15
2023-04-29T12:20:49.532Z,4.13
2023-04-29T12:23:39.354Z,4.22
2023-04-29T12:26:30.486Z,4.30
2023-04-29T12:29:23.695Z,4.47
2023-04-29T12:32:19.155Z,4.68
2023-04-29T12:35:18.550Z,4.40
2023-04-29T12:38:11.521Z,4.10
2023-04-29T12:41:06.008Z,4.45
2023-04-29T12:44:05.020Z,4.40
2023-04-29T12:47:10.364Z,4.15
2023-04-29T12:50:11.971Z,3.83
2023-04-29T12:53:05.481Z,4.25
2023-04-29T12:56:00.284Z,4.35
2023-04-29T12:58:52.983Z,4.10
2023-04-29T13:01:44.399Z,4.65
2023-04-29T13:04:43.840Z,3.85
2023-04-29T13:07:39.885Z,4.10
2023-04-29T13:10:33.242Z,4.60
2023-04-29T13:13:22.074Z,4.13
2023-04-29T13:16:11.660Z,4.85
2023-04-29T13:19:12.961Z,4.10
2023-04-29T13:22:09.648Z,3.83
2023-04-29T13:25:00.986Z,3.85
2023-04-29T13:27:49.954Z,4.30
2023-04-29T13:30:38.642Z,4.07
2023-04-29T13:33:27.414Z,4.07
2023-04-29T13:36:16.682Z,3.78
2023-04-29T13:39:05.456Z,4.18
2023-04-29T13:41:58.994Z,4.00
2023-04-29T13:44:53.089Z,4.00
2023-04-29T13:48:00.425Z,3.88
2023-04-29T13:51:29.208Z,4.55
2023-04-29T13:59:50.611Z,4.00
2023-04-29T14:02:41.694Z,4.10
2023-04-29T14:05:31.065Z,4.07
2023-04-29T14:08:19.924Z,4.63
2023-04-29T14:11:08.757Z,3.97
2023-04-29T14:13:57.614Z,4.43
2023-04-29T14:16:48.113Z,3.97
2023-04-29T14:19:36.928Z,4.45
2023-04-29T14:22:27.593Z,4.10
2023-04-29T14:25:16.810Z,3.80
2023-04-29T14:28:05.998Z,4.10
2023-04-29T14:30:54.625Z,4.20
2023-04-29T14:33:44.676Z,4.50
2023-04-29T14:36:34.382Z,4.20
2023-04-29T14:39:22.963Z,4.05
2023-04-29T14:42:12.949Z,4.28
2023-04-29T14:45:01.931Z,4.10
2023-04-29T14:47:50.651Z,3.88
2023-04-29T14:50:40.794Z,4.35
2023-04-29T14:53:29.752Z,4.10
2023-04-29T14:56:18.875Z,4.10
2023-04-29T14:59:09.005Z,4.00
2023-04-29T15:01:57.773Z,15.38
2023-04-29T15:04:46.995Z,3.85
2023-04-29T15:07:37.219Z,3.80
2023-04-29T15:10:26.016Z,3.90
2023-04-29T15:13:15.108Z,4.38
2023-04-29T15:16:04.601Z,4.15
2023-04-29T15:18:53.209Z,4.47
2023-04-29T15:21:42.112Z,4.55
2023-04-29T15:24:32.375Z,3.88
2023-04-29T15:27:23.907Z,4.53
2023-04-29T15:30:14.091Z,4.20
2023-04-29T15:33:03.088Z,4.82
2023-04-29T15:35:52.253Z,4.00
2023-04-29T15:38:41.571Z,4.35
2023-04-29T15:41:31.910Z,4.35
2023-04-29T15:44:20.515Z,4.30
2023-04-29T15:47:09.241Z,3.92
2023-04-29T15:49:57.831Z,4.07
2023-04-29T15:52:46.631Z,4.25
2023-04-29T15:55:36.058Z,4.47
2023-04-29T15:58:26.141Z,4.10
2023-04-29T16:01:15.190Z,4.28
2023-04-29T16:04:04.194Z,4.22
2023-04-29T16:06:58.020Z,4.22
2023-04-29T16:09:47.733Z,4.15
2023-04-29T16:12:36.607Z,3.92
2023-04-29T16:15:27.498Z,4.50
2023-04-29T16:18:17.575Z,4.70
2023-04-29T16:21:06.482Z,4.25
2023-04-29T16:23:55.483Z,4.22
2023-04-29T16:26:44.343Z,4.28
2023-04-29T16:29:33.417Z,4.03
2023-04-29T16:32:23.725Z,4.18
2023-04-29T16:35:13.004Z,4.85
2023-04-29T16:38:02.644Z,4.18
2023-04-29T16:40:51.557Z,4.22
2023-04-29T16:43:40.309Z,4.50
2023-04-29T16:46:29.928Z,4.30
2023-04-29T16:49:25.605Z,4.10
2023-04-29T16:52:14.697Z,4.40
2023-04-29T16:55:03.943Z,4.50
2023-04-29T16:57:52.683Z,4.90
2023-04-29T17:00:41.517Z,4.20
2023-04-29T17:03:31.637Z,4.50
2023-04-29T17:06:21.783Z,4.22
2023-04-29T17:09:10.781Z,4.10
2023-04-29T17:11:59.510Z,3.80
2023-04-29T17:14:48.628Z,4.15
2023-04-29T17:17:37.469Z,4.07
2023-04-29T17:20:26.312Z,4.07
2023-04-29T17:23:16.434Z,4.05
2023-04-29T17:26:05.533Z,4.90
2023-04-29T17:28:54.510Z,4.43
2023-04-29T17:31:46.093Z,3.80
2023-04-29T17:34:36.928Z,4.35
2023-04-29T17:37:26.344Z,4.43
2023-04-29T17:40:16.699Z,5.20
2023-04-29T17:43:05.567Z,5.45
2023-04-29T17:45:54.498Z,5.57
2023-04-29T17:48:43.358Z,5.53
2023-04-29T17:51:34.295Z,5.35
2023-04-29T17:54:23.122Z,5.70
2023-04-29T17:57:13.370Z,6.00
2023-04-29T18:00:02.294Z,5.70
2023-04-29T18:02:54.055Z,5.38
2023-04-29T18:05:42.811Z,5.50
2023-04-29T18:08:32.019Z,5.50
2023-04-29T18:11:21.281Z,6.15
2023-04-29T18:14:11.457Z,5.85
2023-04-29T18:17:01.262Z,5.93
2023-04-29T18:19:50.625Z,5.47
2023-04-29T18:22:39.594Z,5.75
2023-04-29T18:25:28.245Z,6.00
2023-04-29T18:28:24.877Z,5.97
2023-04-29T18:31:17.145Z,5.15
2023-04-29T18:34:05.873Z,5.15
2023-04-29T18:36:54.894Z,5.55
2023-04-29T18:39:43.677Z,5.20
2023-04-29T18:42:32.624Z,5.45
2023-04-29T18:45:21.560Z,5.43
2023-04-29T18:48:12.374Z,5.78
2023-04-29T18:51:04.108Z,5.70
2023-04-29T18:53:52.993Z,6.03
2023-04-29T18:56:42.211Z,6.28
2023-04-29T18:59:31.956Z,6.30
2023-04-29T19:02:20.746Z,6.55
2023-04-29T19:05:13.125Z,6.22
2023-04-29T19:08:02.119Z,6.25
2023-04-29T19:10:53.117Z,6.63
2023-04-29T19:13:41.867Z,6.72
2023-04-29T19:16:31.144Z,6.25
2023-04-29T19:19:20.067Z,6.60
2023-04-29T19:22:10.610Z,6.47
2023-04-29T19:24:59.542Z,6.25
2023-04-29T19:27:49.217Z,6.50
2023-04-29T19:30:38.399Z,6.82
2023-04-29T19:33:27.044Z,7.10
2023-04-29T19:36:15.824Z,7.05
2023-04-29T19:39:06.216Z,7.43
2023-04-29T19:41:56.095Z,7.50
2023-04-29T19:44:44.953Z,7.30
2023-04-29T19:47:34.004Z,7.15
2023-04-29T19:50:22.921Z,7.20
2023-04-29T19:53:12.669Z,7.07
2023-04-29T19:56:02.814Z,7.00
2023-04-29T19:58:51.487Z,7.68
2023-04-29T20:01:41.130Z,8.00
2023-04-29T20:04:30.112Z,6.90
2023-04-29T20:07:18.991Z,7.78
2023-04-29T20:10:08.891Z,7.25
2023-04-29T20:12:59.180Z,7.13
2023-04-29T20:15:48.713Z,7.38
2023-04-29T20:18:37.277Z,7.45
2023-04-29T20:21:26.340Z,7.47
2023-04-29T20:24:15.470Z,7.50
2023-04-29T20:27:04.873Z,7.25
2023-04-29T20:29:55.927Z,7.70
2023-04-29T20:32:44.981Z,8.05
2023-04-29T20:35:34.242Z,8.45
2023-04-29T20:38:24.606Z,7.95
2023-04-29T20:41:13.652Z,8.68
2023-04-29T20:44:03.183Z,8.30
2023-04-29T20:46:57.979Z,8.50
2023-04-29T20:49:46.857Z,8.52
2023-04-29T20:52:36.632Z,8.73
2023-04-29T20:55:25.536Z,8.50
2023-04-29T20:58:16.540Z,8.52
2023-04-29T21:01:05.382Z,8.05
2023-04-29T21:03:55.702Z,9.23
2023-04-29T21:06:44.460Z,8.18
2023-04-29T21:09:33.771Z,8.88
2023-04-29T21:12:22.417Z,8.55
2023-04-29T21:15:11.700Z,8.60
2023-04-29T21:18:00.463Z,8.63
2023-04-29T21:20:51.348Z,9.05
2023-04-29T21:23:40.164Z,9.13
2023-04-29T21:26:29.177Z,8.77
2023-04-29T21:29:17.935Z,8.90
2023-04-29T21:32:07.501Z,8.88
2023-04-29T21:34:56.052Z,9.63
2023-04-29T21:37:46.146Z,8.75
2023-04-29T21:40:34.998Z,9.07
2023-04-29T21:43:23.754Z,9.05
2023-04-29T21:46:12.832Z,9.18
2023-04-29T21:49:02.889Z,9.02
2023-04-29T21:51:51.650Z,9.52
2023-04-29T21:54:41.690Z,8.73
2023-04-29T21:57:42.821Z,8.50
2023-04-29T22:00:36.346Z,8.55
2023-04-29T22:03:25.590Z,9.40
2023-04-29T22:06:14.230Z,8.90
2023-04-29T22:09:03.418Z,9.38
2023-04-29T22:11:53.764Z,9.63
2023-04-29T22:14:42.809Z,9.77
2023-04-29T22:17:31.711Z,8.63
2023-04-29T22:20:20.602Z,9.32
2023-04-29T22:23:09.226Z,9.40
2023-04-29T22:25:57.946Z,9.52
2023-04-29T22:28:48.245Z,9.48
2023-04-29T22:31:37.118Z,10.48
2023-04-29T22:34:25.876Z,10.18
2023-04-29T22:37:14.828Z,9.73
2023-04-29T22:40:04.549Z,9.65
2023-04-29T22:42:53.265Z,10.77
2023-04-29T22:45:43.747Z,11.10
2023-04-29T22:48:32.556Z,11.13
2023-04-29T22:51:21.477Z,11.25
2023-04-29T22:54:10.228Z,10.93
2023-04-29T22:56:59.467Z,12.02
2023-04-29T22:59:48.158Z,12.23
2023-04-29T23:02:38.368Z,11.20
2023-04-29T23:05:27.229Z,12.27
2023-04-29T23:08:16.048Z,12.05
2023-04-29T23:11:04.735Z,11.93
2023-04-29T23:13:54.836Z,12.55
2023-04-29T23:16:43.803Z,13.40
2023-04-29T23:19:34.521Z,12.13
2023-04-29T23:22:23.248Z,12.85
2023-04-29T23:25:12.506Z,13.77
2023-04-29T23:28:04.587Z,15.07
2023-04-29T23:30:54.574Z,15.80
2023-04-29T23:33:43.381Z,14.80
2023-04-29T23:36:35.070Z,15.20
2023-04-29T23:39:23.875Z,16.20
2023-04-29T23:42:12.793Z,16.05
2023-04-29T23:45:01.673Z,15.73
2023-04-29T23:47:50.468Z,15.82
2023-04-29T23:50:39.284Z,17.27
2023-04-29T23:53:29.370Z,16.30
2023-04-29T23:56:18.282Z,15.95
2023-04-29T23:59:07.066Z,17.10
